sensor_id;sensor_type;location;lat;lon;timestamp;temperature;humidity
48162;DHT22;33950;48.154;16.316;2024-02-26T00:01:27;8.30;99.20
48162;DHT22;33950;48.154;16.316;2024-02-26T00:03:52;8.40;99.40
48162;DHT22;33950;48.154;16.316;2024-02-26T00:06:19;8.40;99.20
48162;DHT22;33950;48.154;16.316;2024-02-26T00:08:44;8.30;99.20
48162;DHT22;33950;48.154;16.316;2024-02-26T00:11:11;8.30;99.10
48162;DHT22;33950;48.154;16.316;2024-02-26T00:13:37;8.30;99.20
48162;DHT22;33950;48.154;16.316;2024-02-26T00:16:03;8.30;99.40
48162;DHT22;33950;48.154;16.316;2024-02-26T00:18:29;8.20;99.40
48162;DHT22;33950;48.154;16.316;2024-02-26T00:20:54;8.20;99.50
48162;DHT22;33950;48.154;16.316;2024-02-26T00:23:20;8.20;99.60
48162;DHT22;33950;48.154;16.316;2024-02-26T00:25:45;8.30;99.60
48162;DHT22;33950;48.154;16.316;2024-02-26T00:28:13;8.20;99.50
48162;DHT22;33950;48.154;16.316;2024-02-26T00:30:38;8.20;99.70
48162;DHT22;33950;48.154;16.316;2024-02-26T00:33:04;8.30;99.80
48162;DHT22;33950;48.154;16.316;2024-02-26T00:35:30;8.30;99.70
48162;DHT22;33950;48.154;16.316;2024-02-26T00:37:55;8.20;99.70
48162;DHT22;33950;48.154;16.316;2024-02-26T00:40:21;8.10;99.80
48162;DHT22;33950;48.154;16.316;2024-02-26T00:42:47;8.10;99.90
48162;DHT22;33950;48.154;16.316;2024-02-26T00:45:14;8.10;99.90
48162;DHT22;33950;48.154;16.316;2024-02-26T00:47:41;8.10;99.90
48162;DHT22;33950;48.154;16.316;2024-02-26T00:50:07;8.10;99.90
48162;DHT22;33950;48.154;16.316;2024-02-26T00:52:33;8.20;99.90
48162;DHT22;33950;48.154;16.316;2024-02-26T00:54:59;8.20;99.90
48162;DHT22;33950;48.154;16.316;2024-02-26T00:57:25;8.20;99.90
48162;DHT22;33950;48.154;16.316;2024-02-26T00:59:50;8.20;99.90
48162;DHT22;33950;48.154;16.316;2024-02-26T01:02:17;8.20;99.90
48162;DHT22;33950;48.154;16.316;2024-02-26T01:04:43;8.20;99.90
48162;DHT22;33950;48.154;16.316;2024-02-26T01:07:08;8.20;99.90
48162;DHT22;33950;48.154;16.316;2024-02-26T01:09:34;8.20;99.90
48162;DHT22;33950;48.154;16.316;2024-02-26T01:12:00;8.20;99.90
48162;DHT22;33950;48.154;16.316;2024-02-26T01:14:25;8.10;99.90
48162;DHT22;33950;48.154;16.316;2024-02-26T01:16:51;8.10;99.90
48162;DHT22;33950;48.154;16.316;2024-02-26T01:19:18;8.10;99.90
48162;DHT22;33950;48.154;16.316;2024-02-26T01:21:43;8.10;99.90
48162;DHT22;33950;48.154;16.316;2024-02-26T01:24:09;8.10;99.90
48162;DHT22;33950;48.154;16.316;2024-02-26T01:26:35;8.10;99.90
48162;DHT22;33950;48.154;16.316;2024-02-26T01:29:00;8.00;99.90
48162;DHT22;33950;48.154;16.316;2024-02-26T01:31:26;8.00;99.90
48162;DHT22;33950;48.154;16.316;2024-02-26T01:33:51;8.00;99.90
48162;DHT22;33950;48.154;16.316;2024-02-26T01:36:19;8.00;99.90
48162;DHT22;33950;48.154;16.316;2024-02-26T01:38:45;8.00;99.90
48162;DHT22;33950;48.154;16.316;2024-02-26T01:41:11;8.00;99.90
48162;DHT22;33950;48.154;16.316;2024-02-26T01:43:36;8.00;99.90
48162;DHT22;33950;48.154;16.316;2024-02-26T01:46:02;8.00;99.90
48162;DHT22;33950;48.154;16.316;2024-02-26T01:48:28;7.90;99.90
48162;DHT22;33950;48.154;16.316;2024-02-26T01:50:54;7.70;99.90
48162;DHT22;33950;48.154;16.316;2024-02-26T01:53:21;7.70;99.90
48162;DHT22;33950;48.154;16.316;2024-02-26T01:55:47;7.60;99.90
48162;DHT22;33950;48.154;16.316;2024-02-26T01:58:13;7.60;99.90
48162;DHT22;33950;48.154;16.316;2024-02-26T02:00:39;7.60;99.90
48162;DHT22;33950;48.154;16.316;2024-02-26T02:03:04;7.60;99.90
48162;DHT22;33950;48.154;16.316;2024-02-26T02:05:30;7.60;99.90
48162;DHT22;33950;48.154;16.316;2024-02-26T02:07:56;7.50;99.90
48162;DHT22;33950;48.154;16.316;2024-02-26T02:10:23;7.50;99.90
48162;DHT22;33950;48.154;16.316;2024-02-26T02:12:51;7.40;99.90
48162;DHT22;33950;48.154;16.316;2024-02-26T02:15:16;7.40;99.90
48162;DHT22;33950;48.154;16.316;2024-02-26T02:17:45;7.30;99.90
48162;DHT22;33950;48.154;16.316;2024-02-26T02:20:15;7.20;99.90
48162;DHT22;33950;48.154;16.316;2024-02-26T02:22:42;7.20;99.90
48162;DHT22;33950;48.154;16.316;2024-02-26T02:25:08;7.20;99.90
48162;DHT22;33950;48.154;16.316;2024-02-26T02:27:33;7.10;99.90
48162;DHT22;33950;48.154;16.316;2024-02-26T02:29:59;7.10;99.90
48162;DHT22;33950;48.154;16.316;2024-02-26T02:32:25;7.20;99.90
48162;DHT22;33950;48.154;16.316;2024-02-26T02:34:51;7.20;99.90
48162;DHT22;33950;48.154;16.316;2024-02-26T02:37:17;7.20;99.90
48162;DHT22;33950;48.154;16.316;2024-02-26T02:39:44;7.20;99.90
48162;DHT22;33950;48.154;16.316;2024-02-26T02:42:10;7.20;99.90
48162;DHT22;33950;48.154;16.316;2024-02-26T02:44:36;7.30;99.90
48162;DHT22;33950;48.154;16.316;2024-02-26T02:47:01;7.20;99.90
48162;DHT22;33950;48.154;16.316;2024-02-26T02:49:27;7.30;99.90
48162;DHT22;33950;48.154;16.316;2024-02-26T02:51:52;7.30;99.90
48162;DHT22;33950;48.154;16.316;2024-02-26T02:54:19;7.30;99.90
48162;DHT22;33950;48.154;16.316;2024-02-26T02:56:46;7.30;99.90
48162;DHT22;33950;48.154;16.316;2024-02-26T02:59:12;7.20;99.90
48162;DHT22;33950;48.154;16.316;2024-02-26T03:01:37;7.20;99.90
48162;DHT22;33950;48.154;16.316;2024-02-26T03:04:03;7.10;99.90
48162;DHT22;33950;48.154;16.316;2024-02-26T03:06:29;7.10;99.90
48162;DHT22;33950;48.154;16.316;2024-02-26T03:08:54;7.20;99.90
48162;DHT22;33950;48.154;16.316;2024-02-26T03:11:20;7.10;99.90
48162;DHT22;33950;48.154;16.316;2024-02-26T03:13:47;7.10;99.90
48162;DHT22;33950;48.154;16.316;2024-02-26T03:16:13;7.00;99.90
48162;DHT22;33950;48.154;16.316;2024-02-26T03:18:38;6.90;99.90
48162;DHT22;33950;48.154;16.316;2024-02-26T03:21:05;6.90;99.90
48162;DHT22;33950;48.154;16.316;2024-02-26T03:23:30;6.90;99.90
48162;DHT22;33950;48.154;16.316;2024-02-26T03:25:57;6.90;99.90
48162;DHT22;33950;48.154;16.316;2024-02-26T03:28:23;6.90;99.90
48162;DHT22;33950;48.154;16.316;2024-02-26T03:30:50;6.90;99.90
48162;DHT22;33950;48.154;16.316;2024-02-26T03:33:16;6.90;99.90
48162;DHT22;33950;48.154;16.316;2024-02-26T03:35:41;6.90;99.90
48162;DHT22;33950;48.154;16.316;2024-02-26T03:38:07;6.90;99.90
48162;DHT22;33950;48.154;16.316;2024-02-26T03:40:33;7.00;99.90
48162;DHT22;33950;48.154;16.316;2024-02-26T03:42:58;7.00;99.90
48162;DHT22;33950;48.154;16.316;2024-02-26T03:45:24;6.90;99.90
48162;DHT22;33950;48.154;16.316;2024-02-26T03:47:52;6.90;99.90
48162;DHT22;33950;48.154;16.316;2024-02-26T03:50:18;6.80;99.90
48162;DHT22;33950;48.154;16.316;2024-02-26T03:52:43;6.70;99.90
48162;DHT22;33950;48.154;16.316;2024-02-26T03:55:09;6.70;99.90
48162;DHT22;33950;48.154;16.316;2024-02-26T03:57:35;6.70;99.90
48162;DHT22;33950;48.154;16.316;2024-02-26T04:00:01;6.70;99.90
48162;DHT22;33950;48.154;16.316;2024-02-26T04:02:26;6.70;99.90
48162;DHT22;33950;48.154;16.316;2024-02-26T04:04:53;6.60;99.90
48162;DHT22;33950;48.154;16.316;2024-02-26T04:07:19;6.60;99.90
48162;DHT22;33950;48.154;16.316;2024-02-26T04:09:45;6.60;99.90
48162;DHT22;33950;48.154;16.316;2024-02-26T04:12:10;6.60;99.90
48162;DHT22;33950;48.154;16.316;2024-02-26T04:14:36;6.70;99.90
48162;DHT22;33950;48.154;16.316;2024-02-26T04:17:02;6.70;99.90
48162;DHT22;33950;48.154;16.316;2024-02-26T04:19:27;6.70;99.90
48162;DHT22;33950;48.154;16.316;2024-02-26T04:21:55;6.80;99.90
48162;DHT22;33950;48.154;16.316;2024-02-26T04:24:20;6.80;99.90
48162;DHT22;33950;48.154;16.316;2024-02-26T04:26:46;6.90;99.90
48162;DHT22;33950;48.154;16.316;2024-02-26T04:29:12;6.90;99.90
48162;DHT22;33950;48.154;16.316;2024-02-26T04:31:37;6.90;99.90
48162;DHT22;33950;48.154;16.316;2024-02-26T04:34:04;6.90;99.90
48162;DHT22;33950;48.154;16.316;2024-02-26T04:36:29;7.00;99.90
48162;DHT22;33950;48.154;16.316;2024-02-26T04:38:57;6.90;99.90
48162;DHT22;33950;48.154;16.316;2024-02-26T04:41:22;6.80;99.90
48162;DHT22;33950;48.154;16.316;2024-02-26T04:43:48;6.80;99.90
48162;DHT22;33950;48.154;16.316;2024-02-26T04:46:13;6.80;99.90
48162;DHT22;33950;48.154;16.316;2024-02-26T04:48:39;6.70;99.90
48162;DHT22;33950;48.154;16.316;2024-02-26T04:51:07;6.80;99.90
48162;DHT22;33950;48.154;16.316;2024-02-26T04:53:32;6.70;99.90
48162;DHT22;33950;48.154;16.316;2024-02-26T04:55:59;6.70;99.90
48162;DHT22;33950;48.154;16.316;2024-02-26T04:58:25;6.70;99.90
48162;DHT22;33950;48.154;16.316;2024-02-26T05:00:50;6.70;99.90
48162;DHT22;33950;48.154;16.316;2024-02-26T05:03:16;6.70;99.90
48162;DHT22;33950;48.154;16.316;2024-02-26T05:05:42;6.70;99.90
48162;DHT22;33950;48.154;16.316;2024-02-26T05:08:08;6.70;99.90
48162;DHT22;33950;48.154;16.316;2024-02-26T05:10:33;6.70;99.90
48162;DHT22;33950;48.154;16.316;2024-02-26T05:13:00;6.70;99.90
48162;DHT22;33950;48.154;16.316;2024-02-26T05:15:26;6.70;99.90
48162;DHT22;33950;48.154;16.316;2024-02-26T05:17:51;6.70;99.90
48162;DHT22;33950;48.154;16.316;2024-02-26T05:20:18;6.70;99.90
48162;DHT22;33950;48.154;16.316;2024-02-26T05:22:43;6.70;99.90
48162;DHT22;33950;48.154;16.316;2024-02-26T05:25:09;6.70;99.90
48162;DHT22;33950;48.154;16.316;2024-02-26T05:27:35;6.70;99.90
48162;DHT22;33950;48.154;16.316;2024-02-26T05:30:02;6.70;99.90
48162;DHT22;33950;48.154;16.316;2024-02-26T05:32:28;6.70;99.90
48162;DHT22;33950;48.154;16.316;2024-02-26T05:34:54;6.60;99.90
48162;DHT22;33950;48.154;16.316;2024-02-26T05:37:20;6.60;99.90
48162;DHT22;33950;48.154;16.316;2024-02-26T05:39:45;6.50;99.90
48162;DHT22;33950;48.154;16.316;2024-02-26T05:42:11;6.40;99.90
48162;DHT22;33950;48.154;16.316;2024-02-26T05:44:36;6.30;99.90
48162;DHT22;33950;48.154;16.316;2024-02-26T05:47:04;6.30;99.90
48162;DHT22;33950;48.154;16.316;2024-02-26T05:49:29;6.30;99.90
48162;DHT22;33950;48.154;16.316;2024-02-26T05:51:55;6.40;99.90
48162;DHT22;33950;48.154;16.316;2024-02-26T05:54:21;6.40;99.90
48162;DHT22;33950;48.154;16.316;2024-02-26T05:56:46;6.40;99.90
48162;DHT22;33950;48.154;16.316;2024-02-26T05:59:12;6.40;99.90
48162;DHT22;33950;48.154;16.316;2024-02-26T06:01:37;6.40;99.90
48162;DHT22;33950;48.154;16.316;2024-02-26T06:04:04;6.40;99.90
48162;DHT22;33950;48.154;16.316;2024-02-26T06:06:30;6.40;99.90
48162;DHT22;33950;48.154;16.316;2024-02-26T06:08:56;6.40;99.90
48162;DHT22;33950;48.154;16.316;2024-02-26T06:11:21;6.50;99.90
48162;DHT22;33950;48.154;16.316;2024-02-26T06:13:48;6.40;99.90
48162;DHT22;33950;48.154;16.316;2024-02-26T06:16:13;6.50;99.90
48162;DHT22;33950;48.154;16.316;2024-02-26T06:18:39;6.50;99.90
48162;DHT22;33950;48.154;16.316;2024-02-26T06:21:08;6.60;99.90
48162;DHT22;33950;48.154;16.316;2024-02-26T06:23:34;6.60;99.90
48162;DHT22;33950;48.154;16.316;2024-02-26T06:26:00;6.60;99.90
48162;DHT22;33950;48.154;16.316;2024-02-26T06:28:25;6.50;99.90
48162;DHT22;33950;48.154;16.316;2024-02-26T06:30:51;6.50;99.90
48162;DHT22;33950;48.154;16.316;2024-02-26T06:33:17;6.60;99.90
48162;DHT22;33950;48.154;16.316;2024-02-26T06:35:43;6.60;99.90
48162;DHT22;33950;48.154;16.316;2024-02-26T06:38:10;6.70;99.90
48162;DHT22;33950;48.154;16.316;2024-02-26T06:40:38;6.70;99.90
48162;DHT22;33950;48.154;16.316;2024-02-26T06:43:03;6.70;99.90
48162;DHT22;33950;48.154;16.316;2024-02-26T06:45:29;6.70;99.90
48162;DHT22;33950;48.154;16.316;2024-02-26T06:47:55;6.70;99.90
48162;DHT22;33950;48.154;16.316;2024-02-26T06:50:21;6.80;99.90
48162;DHT22;33950;48.154;16.316;2024-02-26T06:52:47;6.80;99.90
48162;DHT22;33950;48.154;16.316;2024-02-26T06:55:14;6.80;99.90
48162;DHT22;33950;48.154;16.316;2024-02-26T06:57:40;6.80;99.90
48162;DHT22;33950;48.154;16.316;2024-02-26T07:00:05;7.00;99.90
48162;DHT22;33950;48.154;16.316;2024-02-26T07:02:31;7.30;99.90
48162;DHT22;33950;48.154;16.316;2024-02-26T07:04:57;7.60;99.90
48162;DHT22;33950;48.154;16.316;2024-02-26T07:07:23;7.80;99.90
48162;DHT22;33950;48.154;16.316;2024-02-26T07:09:49;8.10;99.90
48162;DHT22;33950;48.154;16.316;2024-02-26T07:12:16;8.30;99.90
48162;DHT22;33950;48.154;16.316;2024-02-26T07:14:42;7.90;99.90
48162;DHT22;33950;48.154;16.316;2024-02-26T07:17:08;7.40;99.90
48162;DHT22;33950;48.154;16.316;2024-02-26T07:19:34;7.30;99.90
48162;DHT22;33950;48.154;16.316;2024-02-26T07:21:59;7.30;99.90
48162;DHT22;33950;48.154;16.316;2024-02-26T07:24:28;7.30;99.90
48162;DHT22;33950;48.154;16.316;2024-02-26T07:26:53;7.20;99.90
48162;DHT22;33950;48.154;16.316;2024-02-26T07:29:21;6.90;99.90
48162;DHT22;33950;48.154;16.316;2024-02-26T07:31:47;6.80;99.90
48162;DHT22;33950;48.154;16.316;2024-02-26T07:34:13;7.00;99.90
48162;DHT22;33950;48.154;16.316;2024-02-26T07:36:38;7.10;99.90
48162;DHT22;33950;48.154;16.316;2024-02-26T07:39:04;7.10;99.90
48162;DHT22;33950;48.154;16.316;2024-02-26T07:41:30;7.00;99.90
48162;DHT22;33950;48.154;16.316;2024-02-26T07:43:56;6.90;99.90
48162;DHT22;33950;48.154;16.316;2024-02-26T07:46:23;6.80;99.90
48162;DHT22;33950;48.154;16.316;2024-02-26T07:48:48;6.90;99.90
48162;DHT22;33950;48.154;16.316;2024-02-26T07:51:15;7.00;99.90
48162;DHT22;33950;48.154;16.316;2024-02-26T07:53:40;7.20;99.90
48162;DHT22;33950;48.154;16.316;2024-02-26T07:56:06;7.30;99.90
48162;DHT22;33950;48.154;16.316;2024-02-26T07:58:32;7.40;99.90
48162;DHT22;33950;48.154;16.316;2024-02-26T08:00:57;7.20;99.90
48162;DHT22;33950;48.154;16.316;2024-02-26T08:03:24;7.00;99.90
48162;DHT22;33950;48.154;16.316;2024-02-26T08:05:50;7.00;99.90
48162;DHT22;33950;48.154;16.316;2024-02-26T08:08:16;7.10;99.90
48162;DHT22;33950;48.154;16.316;2024-02-26T08:10:41;7.30;99.90
48162;DHT22;33950;48.154;16.316;2024-02-26T08:13:07;7.40;99.90
48162;DHT22;33950;48.154;16.316;2024-02-26T08:15:33;7.50;99.90
48162;DHT22;33950;48.154;16.316;2024-02-26T08:17:59;7.60;99.90
48162;DHT22;33950;48.154;16.316;2024-02-26T08:20:29;7.70;99.90
48162;DHT22;33950;48.154;16.316;2024-02-26T08:22:54;7.70;99.90
48162;DHT22;33950;48.154;16.316;2024-02-26T08:25:20;7.70;99.90
48162;DHT22;33950;48.154;16.316;2024-02-26T08:27:46;7.80;99.90
48162;DHT22;33950;48.154;16.316;2024-02-26T08:30:13;7.70;99.90
48162;DHT22;33950;48.154;16.316;2024-02-26T08:32:41;7.70;99.90
48162;DHT22;33950;48.154;16.316;2024-02-26T08:35:07;7.80;99.90
48162;DHT22;33950;48.154;16.316;2024-02-26T08:37:34;7.90;99.90
48162;DHT22;33950;48.154;16.316;2024-02-26T08:40:00;7.90;99.90
48162;DHT22;33950;48.154;16.316;2024-02-26T08:42:26;8.00;99.90
48162;DHT22;33950;48.154;16.316;2024-02-26T08:44:51;8.00;99.90
48162;DHT22;33950;48.154;16.316;2024-02-26T08:47:17;8.10;99.90
48162;DHT22;33950;48.154;16.316;2024-02-26T08:49:44;8.10;99.90
48162;DHT22;33950;48.154;16.316;2024-02-26T08:52:09;8.20;99.90
48162;DHT22;33950;48.154;16.316;2024-02-26T08:54:37;8.20;99.90
48162;DHT22;33950;48.154;16.316;2024-02-26T08:57:03;8.20;99.90
48162;DHT22;33950;48.154;16.316;2024-02-26T08:59:28;8.30;99.90
48162;DHT22;33950;48.154;16.316;2024-02-26T09:01:54;8.30;99.90
48162;DHT22;33950;48.154;16.316;2024-02-26T09:04:19;8.40;99.90
48162;DHT22;33950;48.154;16.316;2024-02-26T09:06:45;8.50;99.90
48162;DHT22;33950;48.154;16.316;2024-02-26T09:09:11;8.50;99.90
48162;DHT22;33950;48.154;16.316;2024-02-26T09:11:38;8.60;99.90
48162;DHT22;33950;48.154;16.316;2024-02-26T09:14:03;8.80;99.90
48162;DHT22;33950;48.154;16.316;2024-02-26T09:16:29;8.80;99.90
48162;DHT22;33950;48.154;16.316;2024-02-26T09:18:55;8.90;99.90
48162;DHT22;33950;48.154;16.316;2024-02-26T09:21:20;9.10;99.90
48162;DHT22;33950;48.154;16.316;2024-02-26T09:23:48;9.20;99.90
48162;DHT22;33950;48.154;16.316;2024-02-26T09:26:14;9.30;99.90
48162;DHT22;33950;48.154;16.316;2024-02-26T09:28:41;9.30;99.90
48162;DHT22;33950;48.154;16.316;2024-02-26T09:31:06;9.40;99.90
48162;DHT22;33950;48.154;16.316;2024-02-26T09:33:32;9.50;99.90
48162;DHT22;33950;48.154;16.316;2024-02-26T09:35:58;9.50;99.90
48162;DHT22;33950;48.154;16.316;2024-02-26T09:38:27;9.60;99.90
48162;DHT22;33950;48.154;16.316;2024-02-26T09:40:53;9.70;99.90
48162;DHT22;33950;48.154;16.316;2024-02-26T09:43:21;9.80;99.90
48162;DHT22;33950;48.154;16.316;2024-02-26T09:45:48;9.90;99.90
48162;DHT22;33950;48.154;16.316;2024-02-26T09:48:15;10.00;99.90
48162;DHT22;33950;48.154;16.316;2024-02-26T09:50:43;10.10;99.90
48162;DHT22;33950;48.154;16.316;2024-02-26T09:53:12;10.20;99.90
48162;DHT22;33950;48.154;16.316;2024-02-26T09:55:37;10.30;99.90
48162;DHT22;33950;48.154;16.316;2024-02-26T09:58:03;10.50;99.90
48162;DHT22;33950;48.154;16.316;2024-02-26T10:00:30;10.50;99.90
48162;DHT22;33950;48.154;16.316;2024-02-26T10:03:06;10.60;99.90
48162;DHT22;33950;48.154;16.316;2024-02-26T10:05:34;10.70;99.50
48162;DHT22;33950;48.154;16.316;2024-02-26T10:08:00;10.70;99.90
48162;DHT22;33950;48.154;16.316;2024-02-26T10:10:26;10.80;99.60
48162;DHT22;33950;48.154;16.316;2024-02-26T10:12:53;10.90;99.10
48162;DHT22;33950;48.154;16.316;2024-02-26T10:15:19;10.90;98.40
48162;DHT22;33950;48.154;16.316;2024-02-26T10:17:44;10.90;98.40
48162;DHT22;33950;48.154;16.316;2024-02-26T10:20:12;11.00;98.50
48162;DHT22;33950;48.154;16.316;2024-02-26T10:22:40;11.10;98.60
48162;DHT22;33950;48.154;16.316;2024-02-26T10:25:06;11.20;98.60
48162;DHT22;33950;48.154;16.316;2024-02-26T10:27:33;11.30;98.80
48162;DHT22;33950;48.154;16.316;2024-02-26T10:29:59;11.30;97.80
48162;DHT22;33950;48.154;16.316;2024-02-26T10:32:27;11.40;97.80
48162;DHT22;33950;48.154;16.316;2024-02-26T10:34:55;11.40;97.90
48162;DHT22;33950;48.154;16.316;2024-02-26T10:37:22;11.50;97.80
48162;DHT22;33950;48.154;16.316;2024-02-26T10:39:48;11.60;98.00
48162;DHT22;33950;48.154;16.316;2024-02-26T10:42:14;11.70;97.80
48162;DHT22;33950;48.154;16.316;2024-02-26T10:44:40;11.70;96.90
48162;DHT22;33950;48.154;16.316;2024-02-26T10:47:06;11.90;96.90
48162;DHT22;33950;48.154;16.316;2024-02-26T10:49:33;11.90;96.80
48162;DHT22;33950;48.154;16.316;2024-02-26T10:51:59;12.20;96.90
48162;DHT22;33950;48.154;16.316;2024-02-26T10:54:27;12.50;96.40
48162;DHT22;33950;48.154;16.316;2024-02-26T10:56:54;13.10;96.20
48162;DHT22;33950;48.154;16.316;2024-02-26T10:59:21;13.70;94.70
48162;DHT22;33950;48.154;16.316;2024-02-26T11:01:47;14.10;94.50
48162;DHT22;33950;48.154;16.316;2024-02-26T11:04:13;14.50;93.70
48162;DHT22;33950;48.154;16.316;2024-02-26T11:06:40;14.90;93.40
48162;DHT22;33950;48.154;16.316;2024-02-26T11:09:06;15.00;92.80
48162;DHT22;33950;48.154;16.316;2024-02-26T11:11:34;14.80;93.00
48162;DHT22;33950;48.154;16.316;2024-02-26T11:14:01;14.60;93.00
48162;DHT22;33950;48.154;16.316;2024-02-26T11:16:26;14.40;91.10
48162;DHT22;33950;48.154;16.316;2024-02-26T11:18:53;14.30;91.20
48162;DHT22;33950;48.154;16.316;2024-02-26T11:21:21;14.30;91.40
48162;DHT22;33950;48.154;16.316;2024-02-26T11:23:55;14.40;91.60
48162;DHT22;33950;48.154;16.316;2024-02-26T11:26:21;14.60;90.90
48162;DHT22;33950;48.154;16.316;2024-02-26T11:28:49;14.80;90.80
48162;DHT22;33950;48.154;16.316;2024-02-26T11:31:16;15.00;89.00
48162;DHT22;33950;48.154;16.316;2024-02-26T11:33:43;14.90;89.70
48162;DHT22;33950;48.154;16.316;2024-02-26T11:36:10;14.60;88.10
48162;DHT22;33950;48.154;16.316;2024-02-26T11:38:36;14.30;88.20
48162;DHT22;33950;48.154;16.316;2024-02-26T11:41:02;14.20;88.80
48162;DHT22;33950;48.154;16.316;2024-02-26T11:46:20;14.30;88.40
48162;DHT22;33950;48.154;16.316;2024-02-26T11:48:49;14.20;87.80
48162;DHT22;33950;48.154;16.316;2024-02-26T11:51:15;14.10;88.20
48162;DHT22;33950;48.154;16.316;2024-02-26T11:53:45;14.10;88.50
48162;DHT22;33950;48.154;16.316;2024-02-26T11:56:20;14.10;88.50
48162;DHT22;33950;48.154;16.316;2024-02-26T11:58:46;14.00;88.70
48162;DHT22;33950;48.154;16.316;2024-02-26T12:03:58;14.00;88.70
48162;DHT22;33950;48.154;16.316;2024-02-26T12:06:23;14.00;88.30
48162;DHT22;33950;48.154;16.316;2024-02-26T12:08:50;14.10;87.90
48162;DHT22;33950;48.154;16.316;2024-02-26T12:11:16;14.10;88.60
48162;DHT22;33950;48.154;16.316;2024-02-26T12:13:42;14.10;88.10
48162;DHT22;33950;48.154;16.316;2024-02-26T12:16:08;14.20;87.70
48162;DHT22;33950;48.154;16.316;2024-02-26T12:18:34;14.20;87.50
48162;DHT22;33950;48.154;16.316;2024-02-26T12:21:02;14.30;87.20
48162;DHT22;33950;48.154;16.316;2024-02-26T12:23:28;14.50;87.50
48162;DHT22;33950;48.154;16.316;2024-02-26T12:25:54;14.90;86.60
48162;DHT22;33950;48.154;16.316;2024-02-26T12:28:23;15.10;85.90
48162;DHT22;33950;48.154;16.316;2024-02-26T12:30:52;15.10;85.60
48162;DHT22;33950;48.154;16.316;2024-02-26T12:33:18;14.80;85.70
48162;DHT22;33950;48.154;16.316;2024-02-26T12:35:44;14.60;85.60
48162;DHT22;33950;48.154;16.316;2024-02-26T12:38:15;14.40;86.60
48162;DHT22;33950;48.154;16.316;2024-02-26T12:40:40;14.30;87.20
48162;DHT22;33950;48.154;16.316;2024-02-26T12:43:06;14.30;87.40
48162;DHT22;33950;48.154;16.316;2024-02-26T12:45:38;14.50;87.30
48162;DHT22;33950;48.154;16.316;2024-02-26T12:48:04;14.90;87.10
48162;DHT22;33950;48.154;16.316;2024-02-26T12:50:30;15.30;86.40
48162;DHT22;33950;48.154;16.316;2024-02-26T12:52:57;15.50;84.00
48162;DHT22;33950;48.154;16.316;2024-02-26T12:55:25;15.60;84.20
48162;DHT22;33950;48.154;16.316;2024-02-26T12:57:51;15.40;84.20
48162;DHT22;33950;48.154;16.316;2024-02-26T13:00:18;15.20;85.00
48162;DHT22;33950;48.154;16.316;2024-02-26T13:02:45;14.90;84.90
48162;DHT22;33950;48.154;16.316;2024-02-26T13:05:12;14.70;85.20
48162;DHT22;33950;48.154;16.316;2024-02-26T13:07:40;14.40;85.50
48162;DHT22;33950;48.154;16.316;2024-02-26T13:10:06;14.30;86.20
48162;DHT22;33950;48.154;16.316;2024-02-26T13:12:34;14.40;85.70
48162;DHT22;33950;48.154;16.316;2024-02-26T13:14:59;14.80;86.20
48162;DHT22;33950;48.154;16.316;2024-02-26T13:17:25;15.00;85.70
48162;DHT22;33950;48.154;16.316;2024-02-26T13:19:53;15.10;85.60
48162;DHT22;33950;48.154;16.316;2024-02-26T13:22:20;15.00;85.30
48162;DHT22;33950;48.154;16.316;2024-02-26T13:24:49;14.90;84.20
48162;DHT22;33950;48.154;16.316;2024-02-26T13:27:20;14.60;83.90
48162;DHT22;33950;48.154;16.316;2024-02-26T13:29:47;14.30;84.70
48162;DHT22;33950;48.154;16.316;2024-02-26T13:32:13;14.30;85.60
48162;DHT22;33950;48.154;16.316;2024-02-26T13:34:38;14.50;85.90
48162;DHT22;33950;48.154;16.316;2024-02-26T13:37:04;14.60;85.20
48162;DHT22;33950;48.154;16.316;2024-02-26T13:39:31;14.90;84.60
48162;DHT22;33950;48.154;16.316;2024-02-26T13:41:56;15.20;83.20
48162;DHT22;33950;48.154;16.316;2024-02-26T13:44:22;15.30;82.60
48162;DHT22;33950;48.154;16.316;2024-02-26T13:46:50;15.10;82.20
48162;DHT22;33950;48.154;16.316;2024-02-26T13:49:15;14.80;83.00
48162;DHT22;33950;48.154;16.316;2024-02-26T13:51:41;14.50;83.40
48162;DHT22;33950;48.154;16.316;2024-02-26T13:54:07;14.40;83.90
48162;DHT22;33950;48.154;16.316;2024-02-26T13:56:32;14.20;84.40
48162;DHT22;33950;48.154;16.316;2024-02-26T13:58:58;14.10;84.50
48162;DHT22;33950;48.154;16.316;2024-02-26T14:01:24;13.90;84.70
48162;DHT22;33950;48.154;16.316;2024-02-26T14:03:51;14.00;84.90
48162;DHT22;33950;48.154;16.316;2024-02-26T14:06:20;14.30;85.40
48162;DHT22;33950;48.154;16.316;2024-02-26T14:08:46;14.50;84.30
48162;DHT22;33950;48.154;16.316;2024-02-26T14:11:11;14.70;83.70
48162;DHT22;33950;48.154;16.316;2024-02-26T14:13:37;14.90;83.60
48162;DHT22;33950;48.154;16.316;2024-02-26T14:16:02;15.10;82.80
48162;DHT22;33950;48.154;16.316;2024-02-26T14:18:28;15.30;83.30
48162;DHT22;33950;48.154;16.316;2024-02-26T14:20:55;15.60;82.10
48162;DHT22;33950;48.154;16.316;2024-02-26T14:23:21;15.60;82.00
48162;DHT22;33950;48.154;16.316;2024-02-26T14:25:46;15.40;82.00
48162;DHT22;33950;48.154;16.316;2024-02-26T14:28:12;15.10;82.30
48162;DHT22;33950;48.154;16.316;2024-02-26T14:30:37;15.00;82.90
48162;DHT22;33950;48.154;16.316;2024-02-26T14:33:03;14.80;83.10
48162;DHT22;33950;48.154;16.316;2024-02-26T14:35:29;14.70;83.80
48162;DHT22;33950;48.154;16.316;2024-02-26T14:37:57;14.60;83.50
48162;DHT22;33950;48.154;16.316;2024-02-26T14:40:26;14.50;83.30
48162;DHT22;33950;48.154;16.316;2024-02-26T14:42:51;14.30;83.60
48162;DHT22;33950;48.154;16.316;2024-02-26T14:45:17;14.20;84.00
48162;DHT22;33950;48.154;16.316;2024-02-26T14:47:43;14.00;84.10
48162;DHT22;33950;48.154;16.316;2024-02-26T14:50:08;13.90;84.20
48162;DHT22;33950;48.154;16.316;2024-02-26T14:52:34;13.70;84.50
48162;DHT22;33950;48.154;16.316;2024-02-26T14:55:01;13.60;84.60
48162;DHT22;33950;48.154;16.316;2024-02-26T14:57:27;13.50;85.00
48162;DHT22;33950;48.154;16.316;2024-02-26T14:59:52;13.40;85.30
48162;DHT22;33950;48.154;16.316;2024-02-26T15:02:18;13.40;85.70
48162;DHT22;33950;48.154;16.316;2024-02-26T15:04:44;13.40;86.10
48162;DHT22;33950;48.154;16.316;2024-02-26T15:07:10;13.40;86.70
48162;DHT22;33950;48.154;16.316;2024-02-26T15:09:36;13.40;86.70
48162;DHT22;33950;48.154;16.316;2024-02-26T15:12:12;13.40;87.20
48162;DHT22;33950;48.154;16.316;2024-02-26T15:14:37;13.30;86.90
48162;DHT22;33950;48.154;16.316;2024-02-26T15:17:05;13.30;87.00
48162;DHT22;33950;48.154;16.316;2024-02-26T15:19:35;13.20;87.30
48162;DHT22;33950;48.154;16.316;2024-02-26T15:22:01;13.20;86.80
48162;DHT22;33950;48.154;16.316;2024-02-26T15:24:26;13.10;87.20